sensor_id;sensor_type;location;lat;lon;timestamp;P1;durP1;ratioP1;P2;durP2;ratioP2
8574;SDS011;4325;42.520;27.448;2023-11-22T00:02:15;8.03;;;5.40;;
8574;SDS011;4325;42.520;27.448;2023-11-22T00:04:42;7.23;;;4.97;;
8574;SDS011;4325;42.520;27.448;2023-11-22T00:07:11;8.33;;;5.00;;
8574;SDS011;4325;42.520;27.448;2023-11-22T00:09:38;6.97;;;5.20;;
8574;SDS011;4325;42.520;27.448;2023-11-22T00:12:07;8.30;;;5.73;;
8574;SDS011;4325;42.520;27.448;2023-11-22T00:14:34;10.83;;;5.13;;
8574;SDS011;4325;42.520;27.448;2023-11-22T00:17:01;5.57;;;4.93;;
8574;SDS011;4325;42.520;27.448;2023-11-22T00:19:29;7.83;;;5.03;;
8574;SDS011;4325;42.520;27.448;2023-11-22T00:21:56;7.50;;;4.87;;
8574;SDS011;4325;42.520;27.448;2023-11-22T00:24:24;6.43;;;4.97;;
8574;SDS011;4325;42.520;27.448;2023-11-22T00:26:51;6.93;;;4.67;;
8574;SDS011;4325;42.520;27.448;2023-11-22T00:29:18;6.77;;;4.57;;
8574;SDS011;4325;42.520;27.448;2023-11-22T00:31:45;9.27;;;5.77;;
8574;SDS011;4325;42.520;27.448;2023-11-22T00:34:12;6.83;;;5.20;;
8574;SDS011;4325;42.520;27.448;2023-11-22T00:36:39;9.50;;;6.93;;
8574;SDS011;4325;42.520;27.448;2023-11-22T00:39:06;14.30;;;5.53;;
8574;SDS011;4325;42.520;27.448;2023-11-22T00:41:36;7.33;;;5.30;;
8574;SDS011;4325;42.520;27.448;2023-11-22T00:44:03;10.90;;;5.43;;
8574;SDS011;4325;42.520;27.448;2023-11-22T00:46:31;5.13;;;4.63;;
8574;SDS011;4325;42.520;27.448;2023-11-22T00:48:58;5.70;;;4.50;;
8574;SDS011;4325;42.520;27.448;2023-11-22T00:51:25;9.67;;;4.97;;
8574;SDS011;4325;42.520;27.448;2023-11-22T00:53:52;9.67;;;4.57;;
8574;SDS011;4325;42.520;27.448;2023-11-22T00:56:20;5.33;;;4.37;;
8574;SDS011;4325;42.520;27.448;2023-11-22T00:58:48;5.50;;;4.60;;
8574;SDS011;4325;42.520;27.448;2023-11-22T01:01:15;9.43;;;5.17;;
8574;SDS011;4325;42.520;27.448;2023-11-22T01:03:43;6.33;;;4.27;;
8574;SDS011;4325;42.520;27.448;2023-11-22T01:06:10;7.60;;;5.10;;
8574;SDS011;4325;42.520;27.448;2023-11-22T01:08:37;6.33;;;4.47;;
8574;SDS011;4325;42.520;27.448;2023-11-22T01:11:04;7.03;;;4.47;;
8574;SDS011;4325;42.520;27.448;2023-11-22T01:13:33;6.13;;;4.70;;
8574;SDS011;4325;42.520;27.448;2023-11-22T01:16:07;7.20;;;4.80;;
8574;SDS011;4325;42.520;27.448;2023-11-22T01:18:33;5.40;;;4.70;;
8574;SDS011;4325;42.520;27.448;2023-11-22T01:21:01;9.80;;;5.53;;
8574;SDS011;4325;42.520;27.448;2023-11-22T01:23:29;7.10;;;4.87;;
8574;SDS011;4325;42.520;27.448;2023-11-22T01:25:57;6.23;;;4.43;;
8574;SDS011;4325;42.520;27.448;2023-11-22T01:28:23;7.07;;;5.23;;
8574;SDS011;4325;42.520;27.448;2023-11-22T01:30:52;7.50;;;5.00;;
8574;SDS011;4325;42.520;27.448;2023-11-22T01:33:21;9.57;;;4.67;;
8574;SDS011;4325;42.520;27.448;2023-11-22T01:35:48;7.13;;;4.80;;
8574;SDS011;4325;42.520;27.448;2023-11-22T01:38:16;8.60;;;4.87;;
8574;SDS011;4325;42.520;27.448;2023-11-22T01:40:43;7.47;;;4.83;;
8574;SDS011;4325;42.520;27.448;2023-11-22T01:43:12;4.97;;;4.20;;
8574;SDS011;4325;42.520;27.448;2023-11-22T01:45:41;7.13;;;4.97;;
8574;SDS011;4325;42.520;27.448;2023-11-22T01:48:10;5.00;;;4.30;;
8574;SDS011;4325;42.520;27.448;2023-11-22T01:50:39;8.23;;;4.73;;
8574;SDS011;4325;42.520;27.448;2023-11-22T01:53:07;6.83;;;5.17;;
8574;SDS011;4325;42.520;27.448;2023-11-22T01:55:35;7.57;;;4.97;;
8574;SDS011;4325;42.520;27.448;2023-11-22T01:58:02;8.40;;;5.47;;
8574;SDS011;4325;42.520;27.448;2023-11-22T02:00:30;7.60;;;5.30;;
8574;SDS011;4325;42.520;27.448;2023-11-22T02:03:10;6.03;;;4.50;;
8574;SDS011;4325;42.520;27.448;2023-11-22T02:05:40;9.20;;;5.40;;
8574;SDS011;4325;42.520;27.448;2023-11-22T02:08:08;7.87;;;4.70;;
8574;SDS011;4325;42.520;27.448;2023-11-22T02:10:35;6.40;;;4.60;;
8574;SDS011;4325;42.520;27.448;2023-11-22T02:13:02;7.33;;;5.80;;
8574;SDS011;4325;42.520;27.448;2023-11-22T02:15:32;7.97;;;5.53;;
8574;SDS011;4325;42.520;27.448;2023-11-22T02:17:59;8.27;;;5.17;;
8574;SDS011;4325;42.520;27.448;2023-11-22T02:20:27;6.93;;;4.43;;
8574;SDS011;4325;42.520;27.448;2023-11-22T02:22:55;9.37;;;4.70;;
8574;SDS011;4325;42.520;27.448;2023-11-22T02:25:23;6.23;;;4.67;;
8574;SDS011;4325;42.520;27.448;2023-11-22T02:27:50;5.77;;;4.67;;
8574;SDS011;4325;42.520;27.448;2023-11-22T02:30:17;6.33;;;5.20;;
8574;SDS011;4325;42.520;27.448;2023-11-22T02:32:44;7.60;;;5.67;;
8574;SDS011;4325;42.520;27.448;2023-11-22T02:35:11;8.60;;;5.03;;
8574;SDS011;4325;42.520;27.448;2023-11-22T02:37:41;6.77;;;5.13;;
8574;SDS011;4325;42.520;27.448;2023-11-22T02:40:12;7.77;;;5.00;;
8574;SDS011;4325;42.520;27.448;2023-11-22T02:42:45;7.80;;;5.03;;
8574;SDS011;4325;42.520;27.448;2023-11-22T02:45:13;7.27;;;4.77;;
8574;SDS011;4325;42.520;27.448;2023-11-22T02:47:39;7.80;;;5.27;;
8574;SDS011;4325;42.520;27.448;2023-11-22T02:50:06;10.33;;;5.87;;
8574;SDS011;4325;42.520;27.448;2023-11-22T02:52:34;10.60;;;6.10;;
8574;SDS011;4325;42.520;27.448;2023-11-22T02:55:01;8.83;;;5.87;;
8574;SDS011;4325;42.520;27.448;2023-11-22T02:57:28;12.20;;;6.77;;
8574;SDS011;4325;42.520;27.448;2023-11-22T02:59:56;8.87;;;6.93;;
8574;SDS011;4325;42.520;27.448;2023-11-22T03:02:24;10.97;;;7.23;;
8574;SDS011;4325;42.520;27.448;2023-11-22T03:04:51;11.33;;;6.93;;
8574;SDS011;4325;42.520;27.448;2023-11-22T03:07:18;11.17;;;7.13;;
8574;SDS011;4325;42.520;27.448;2023-11-22T03:09:45;10.13;;;7.10;;
8574;SDS011;4325;42.520;27.448;2023-11-22T03:12:13;9.67;;;7.63;;
8574;SDS011;4325;42.520;27.448;2023-11-22T03:14:40;11.13;;;7.17;;
8574;SDS011;4325;42.520;27.448;2023-11-22T03:17:08;12.10;;;7.10;;
8574;SDS011;4325;42.520;27.448;2023-11-22T03:19:35;11.23;;;6.90;;
8574;SDS011;4325;42.520;27.448;2023-11-22T03:22:02;12.63;;;7.70;;
8574;SDS011;4325;42.520;27.448;2023-11-22T03:24:29;14.73;;;8.70;;
8574;SDS011;4325;42.520;27.448;2023-11-22T03:26:57;14.60;;;9.53;;
8574;SDS011;4325;42.520;27.448;2023-11-22T03:29:25;19.77;;;11.40;;
8574;SDS011;4325;42.520;27.448;2023-11-22T03:31:52;20.80;;;13.37;;
8574;SDS011;4325;42.520;27.448;2023-11-22T03:34:21;18.60;;;10.87;;
8574;SDS011;4325;42.520;27.448;2023-11-22T03:36:48;18.57;;;10.30;;
8574;SDS011;4325;42.520;27.448;2023-11-22T03:39:16;19.47;;;9.63;;
8574;SDS011;4325;42.520;27.448;2023-11-22T03:41:43;17.40;;;10.77;;
8574;SDS011;4325;42.520;27.448;2023-11-22T03:44:10;14.63;;;10.33;;
8574;SDS011;4325;42.520;27.448;2023-11-22T03:46:38;19.30;;;9.73;;
8574;SDS011;4325;42.520;27.448;2023-11-22T03:49:05;14.43;;;9.80;;
8574;SDS011;4325;42.520;27.448;2023-11-22T03:51:34;20.47;;;9.83;;
8574;SDS011;4325;42.520;27.448;2023-11-22T03:54:02;12.57;;;8.83;;
8574;SDS011;4325;42.520;27.448;2023-11-22T03:56:29;16.37;;;11.10;;
8574;SDS011;4325;42.520;27.448;2023-11-22T03:58:56;19.90;;;11.13;;
8574;SDS011;4325;42.520;27.448;2023-11-22T04:01:23;16.73;;;9.77;;
8574;SDS011;4325;42.520;27.448;2023-11-22T04:03:50;18.70;;;9.53;;
8574;SDS011;4325;42.520;27.448;2023-11-22T04:06:19;13.40;;;8.87;;
8574;SDS011;4325;42.520;27.448;2023-11-22T04:08:47;14.07;;;8.90;;
8574;SDS011;4325;42.520;27.448;2023-11-22T04:11:15;15.20;;;9.80;;
8574;SDS011;4325;42.520;27.448;2023-11-22T04:13:43;15.07;;;10.40;;
8574;SDS011;4325;42.520;27.448;2023-11-22T04:16:10;20.60;;;9.90;;
8574;SDS011;4325;42.520;27.448;2023-11-22T04:18:38;15.87;;;9.47;;
8574;SDS011;4325;42.520;27.448;2023-11-22T04:21:05;17.43;;;10.77;;
8574;SDS011;4325;42.520;27.448;2023-11-22T04:23:32;17.33;;;11.50;;
8574;SDS011;4325;42.520;27.448;2023-11-22T04:26:01;19.67;;;11.40;;
8574;SDS011;4325;42.520;27.448;2023-11-22T04:28:28;23.90;;;13.23;;
8574;SDS011;4325;42.520;27.448;2023-11-22T04:30:56;14.93;;;9.23;;
8574;SDS011;4325;42.520;27.448;2023-11-22T04:33:23;20.23;;;12.37;;
8574;SDS011;4325;42.520;27.448;2023-11-22T04:35:49;13.37;;;8.93;;
8574;SDS011;4325;42.520;27.448;2023-11-22T04:38:16;11.13;;;7.07;;
8574;SDS011;4325;42.520;27.448;2023-11-22T04:40:43;12.70;;;8.70;;
8574;SDS011;4325;42.520;27.448;2023-11-22T04:43:12;12.03;;;7.97;;
8574;SDS011;4325;42.520;27.448;2023-11-22T04:45:39;10.40;;;7.07;;
8574;SDS011;4325;42.520;27.448;2023-11-22T04:48:06;12.70;;;9.13;;
8574;SDS011;4325;42.520;27.448;2023-11-22T04:50:33;14.87;;;9.60;;
8574;SDS011;4325;42.520;27.448;2023-11-22T04:53:00;22.57;;;12.80;;
8574;SDS011;4325;42.520;27.448;2023-11-22T04:55:27;11.90;;;8.43;;
8574;SDS011;4325;42.520;27.448;2023-11-22T04:57:54;16.10;;;9.60;;
8574;SDS011;4325;42.520;27.448;2023-11-22T05:00:23;15.00;;;10.33;;
8574;SDS011;4325;42.520;27.448;2023-11-22T05:02:50;15.50;;;10.10;;
8574;SDS011;4325;42.520;27.448;2023-11-22T05:05:17;11.53;;;7.77;;
8574;SDS011;4325;42.520;27.448;2023-11-22T05:07:44;12.77;;;9.07;;
8574;SDS011;4325;42.520;27.448;2023-11-22T05:10:11;13.73;;;8.83;;
8574;SDS011;4325;42.520;27.448;2023-11-22T05:12:39;10.10;;;7.63;;
8574;SDS011;4325;42.520;27.448;2023-11-22T05:15:06;11.20;;;8.57;;
8574;SDS011;4325;42.520;27.448;2023-11-22T05:17:35;14.03;;;9.37;;
8574;SDS011;4325;42.520;27.448;2023-11-22T05:20:02;16.20;;;10.73;;
8574;SDS011;4325;42.520;27.448;2023-11-22T05:22:30;16.03;;;9.43;;
8574;SDS011;4325;42.520;27.448;2023-11-22T05:24:57;16.13;;;9.57;;
8574;SDS011;4325;42.520;27.448;2023-11-22T05:27:24;19.50;;;10.30;;
8574;SDS011;4325;42.520;27.448;2023-11-22T05:29:51;21.33;;;13.20;;
8574;SDS011;4325;42.520;27.448;2023-11-22T05:32:19;18.97;;;12.07;;
8574;SDS011;4325;42.520;27.448;2023-11-22T05:34:47;18.23;;;13.00;;
8574;SDS011;4325;42.520;27.448;2023-11-22T05:37:14;25.30;;;16.20;;
8574;SDS011;4325;42.520;27.448;2023-11-22T05:39:41;26.90;;;14.17;;
8574;SDS011;4325;42.520;27.448;2023-11-22T05:42:08;51.50;;;28.73;;
8574;SDS011;4325;42.520;27.448;2023-11-22T05:44:35;29.57;;;15.00;;
8574;SDS011;4325;42.520;27.448;2023-11-22T05:47:02;25.70;;;14.63;;
8574;SDS011;4325;42.520;27.448;2023-11-22T05:49:29;24.50;;;14.23;;
8574;SDS011;4325;42.520;27.448;2023-11-22T05:51:58;25.77;;;15.27;;
8574;SDS011;4325;42.520;27.448;2023-11-22T05:54:24;23.20;;;13.77;;
8574;SDS011;4325;42.520;27.448;2023-11-22T05:56:51;27.87;;;16.47;;
8574;SDS011;4325;42.520;27.448;2023-11-22T05:59:19;28.33;;;16.53;;
8574;SDS011;4325;42.520;27.448;2023-11-22T06:01:46;24.37;;;17.77;;
8574;SDS011;4325;42.520;27.448;2023-11-22T06:04:13;27.27;;;17.70;;
8574;SDS011;4325;42.520;27.448;2023-11-22T06:06:40;25.73;;;16.93;;
8574;SDS011;4325;42.520;27.448;2023-11-22T06:09:09;27.53;;;15.53;;
8574;SDS011;4325;42.520;27.448;2023-11-22T06:11:39;31.90;;;16.00;;
8574;SDS011;4325;42.520;27.448;2023-11-22T06:14:06;30.60;;;17.40;;
8574;SDS011;4325;42.520;27.448;2023-11-22T06:16:33;35.23;;;15.33;;
8574;SDS011;4325;42.520;27.448;2023-11-22T06:19:00;26.00;;;14.23;;
8574;SDS011;4325;42.520;27.448;2023-11-22T06:21:27;20.30;;;13.67;;
8574;SDS011;4325;42.520;27.448;2023-11-22T06:23:55;23.50;;;14.67;;
8574;SDS011;4325;42.520;27.448;2023-11-22T06:26:24;28.27;;;16.27;;
8574;SDS011;4325;42.520;27.448;2023-11-22T06:28:52;33.23;;;18.33;;
8574;SDS011;4325;42.520;27.448;2023-11-22T06:31:21;33.60;;;18.07;;
8574;SDS011;4325;42.520;27.448;2023-11-22T06:33:48;28.00;;;17.47;;
8574;SDS011;4325;42.520;27.448;2023-11-22T06:36:15;34.73;;;20.20;;
8574;SDS011;4325;42.520;27.448;2023-11-22T06:38:43;40.53;;;24.87;;
8574;SDS011;4325;42.520;27.448;2023-11-22T06:41:11;58.30;;;29.53;;
8574;SDS011;4325;42.520;27.448;2023-11-22T06:43:40;36.30;;;21.47;;
8574;SDS011;4325;42.520;27.448;2023-11-22T06:46:07;50.97;;;23.13;;
8574;SDS011;4325;42.520;27.448;2023-11-22T06:48:36;38.73;;;22.03;;
8574;SDS011;4325;42.520;27.448;2023-11-22T06:51:03;42.50;;;20.87;;
8574;SDS011;4325;42.520;27.448;2023-11-22T06:53:32;41.27;;;17.50;;
8574;SDS011;4325;42.520;27.448;2023-11-22T06:55:59;35.73;;;18.20;;
8574;SDS011;4325;42.520;27.448;2023-11-22T06:58:26;35.13;;;19.23;;
8574;SDS011;4325;42.520;27.448;2023-11-22T07:00:54;41.33;;;19.23;;
8574;SDS011;4325;42.520;27.448;2023-11-22T07:03:22;36.60;;;16.93;;
8574;SDS011;4325;42.520;27.448;2023-11-22T07:05:49;35.80;;;16.83;;
8574;SDS011;4325;42.520;27.448;2023-11-22T07:08:16;36.50;;;20.53;;
8574;SDS011;4325;42.520;27.448;2023-11-22T07:10:43;43.07;;;19.13;;
8574;SDS011;4325;42.520;27.448;2023-11-22T07:13:10;40.17;;;19.03;;
8574;SDS011;4325;42.520;27.448;2023-11-22T07:15:38;45.17;;;25.87;;
8574;SDS011;4325;42.520;27.448;2023-11-22T07:18:07;44.23;;;25.20;;
8574;SDS011;4325;42.520;27.448;2023-11-22T07:20:35;41.90;;;25.17;;
8574;SDS011;4325;42.520;27.448;2023-11-22T07:23:02;45.77;;;25.20;;
8574;SDS011;4325;42.520;27.448;2023-11-22T07:25:29;37.13;;;20.90;;
8574;SDS011;4325;42.520;27.448;2023-11-22T07:27:57;47.97;;;22.33;;
8574;SDS011;4325;42.520;27.448;2023-11-22T07:30:25;39.00;;;19.40;;
8574;SDS011;4325;42.520;27.448;2023-11-22T07:32:55;38.67;;;21.17;;
8574;SDS011;4325;42.520;27.448;2023-11-22T07:35:25;40.33;;;21.97;;
8574;SDS011;4325;42.520;27.448;2023-11-22T07:37:55;41.87;;;22.67;;
8574;SDS011;4325;42.520;27.448;2023-11-22T07:40:23;37.93;;;18.43;;
8574;SDS011;4325;42.520;27.448;2023-11-22T07:42:49;25.37;;;16.87;;
8574;SDS011;4325;42.520;27.448;2023-11-22T07:45:17;41.43;;;19.47;;
8574;SDS011;4325;42.520;27.448;2023-11-22T07:47:44;28.70;;;16.80;;
8574;SDS011;4325;42.520;27.448;2023-11-22T07:50:12;33.60;;;18.67;;
8574;SDS011;4325;42.520;27.448;2023-11-22T07:52:40;31.97;;;18.83;;
8574;SDS011;4325;42.520;27.448;2023-11-22T07:55:07;39.70;;;20.37;;
8574;SDS011;4325;42.520;27.448;2023-11-22T07:57:35;35.60;;;19.07;;
8574;SDS011;4325;42.520;27.448;2023-11-22T08:00:04;39.23;;;19.03;;
8574;SDS011;4325;42.520;27.448;2023-11-22T08:02:32;44.27;;;17.07;;
8574;SDS011;4325;42.520;27.448;2023-11-22T08:05:00;26.83;;;15.60;;
8574;SDS011;4325;42.520;27.448;2023-11-22T08:07:28;42.23;;;16.30;;
8574;SDS011;4325;42.520;27.448;2023-11-22T08:09:59;37.90;;;16.53;;
8574;SDS011;4325;42.520;27.448;2023-11-22T08:12:34;24.70;;;13.50;;
8574;SDS011;4325;42.520;27.448;2023-11-22T08:15:02;25.37;;;14.70;;
8574;SDS011;4325;42.520;27.448;2023-11-22T08:17:30;26.97;;;15.17;;
8574;SDS011;4325;42.520;27.448;2023-11-22T08:19:58;29.17;;;15.83;;
8574;SDS011;4325;42.520;27.448;2023-11-22T08:22:25;23.57;;;13.20;;
8574;SDS011;4325;42.520;27.448;2023-11-22T08:24:54;22.40;;;12.13;;
8574;SDS011;4325;42.520;27.448;2023-11-22T08:27:24;24.10;;;11.00;;
8574;SDS011;4325;42.520;27.448;2023-11-22T08:29:52;28.43;;;12.67;;
8574;SDS011;4325;42.520;27.448;2023-11-22T08:32:19;17.40;;;10.97;;
8574;SDS011;4325;42.520;27.448;2023-11-22T08:34:48;22.70;;;10.67;;
8574;SDS011;4325;42.520;27.448;2023-11-22T08:37:16;25.13;;;11.23;;
8574;SDS011;4325;42.520;27.448;2023-11-22T08:39:43;23.80;;;10.43;;
8574;SDS011;4325;42.520;27.448;2023-11-22T08:42:11;17.90;;;10.23;;
8574;SDS011;4325;42.520;27.448;2023-11-22T08:44:40;17.57;;;10.33;;
8574;SDS011;4325;42.520;27.448;2023-11-22T08:47:07;25.20;;;10.40;;
8574;SDS011;4325;42.520;27.448;2023-11-22T08:49:34;14.27;;;9.27;;
8574;SDS011;4325;42.520;27.448;2023-11-22T08:52:01;15.47;;;8.60;;
8574;SDS011;4325;42.520;27.448;2023-11-22T08:54:32;16.67;;;8.70;;
8574;SDS011;4325;42.520;27.448;2023-11-22T08:56:59;16.57;;;8.60;;
8574;SDS011;4325;42.520;27.448;2023-11-22T08:59:26;20.10;;;9.50;;
8574;SDS011;4325;42.520;27.448;2023-11-22T09:01:55;16.70;;;9.00;;
8574;SDS011;4325;42.520;27.448;2023-11-22T09:04:22;13.93;;;8.27;;
8574;SDS011;4325;42.520;27.448;2023-11-22T09:06:51;15.43;;;9.13;;
8574;SDS011;4325;42.520;27.448;2023-11-22T09:09:21;43.57;;;23.40;;
8574;SDS011;4325;42.520;27.448;2023-11-22T09:11:55;77.17;;;43.83;;
8574;SDS011;4325;42.520;27.448;2023-11-22T09:14:22;52.13;;;32.20;;
8574;SDS011;4325;42.520;27.448;2023-11-22T09:16:50;31.47;;;21.87;;
8574;SDS011;4325;42.520;27.448;2023-11-22T09:19:20;27.27;;;14.03;;
8574;SDS011;4325;42.520;27.448;2023-11-22T09:21:48;15.57;;;11.70;;
8574;SDS011;4325;42.520;27.448;2023-11-22T09:24:16;13.80;;;8.77;;
8574;SDS011;4325;42.520;27.448;2023-11-22T09:26:43;23.27;;;12.27;;
8574;SDS011;4325;42.520;27.448;2023-11-22T09:29:11;38.73;;;12.77;;
8574;SDS011;4325;42.520;27.448;2023-11-22T09:31:39;32.37;;;12.90;;
8574;SDS011;4325;42.520;27.448;2023-11-22T09:34:07;27.70;;;12.27;;
8574;SDS011;4325;42.520;27.448;2023-11-22T09:36:36;21.07;;;11.40;;
8574;SDS011;4325;42.520;27.448;2023-11-22T09:39:03;25.00;;;11.70;;
8574;SDS011;4325;42.520;27.448;2023-11-22T09:41:33;23.07;;;11.23;;
8574;SDS011;4325;42.520;27.448;2023-11-22T09:44:00;19.93;;;12.07;;
8574;SDS011;4325;42.520;27.448;2023-11-22T09:46:29;31.53;;;13.60;;
8574;SDS011;4325;42.520;27.448;2023-11-22T09:48:59;23.00;;;11.57;;
8574;SDS011;4325;42.520;27.448;2023-11-22T09:51:29;21.30;;;11.73;;
8574;SDS011;4325;42.520;27.448;2023-11-22T09:54:06;13.73;;;9.77;;
8574;SDS011;4325;42.520;27.448;2023-11-22T09:56:39;23.73;;;10.23;;
8574;SDS011;4325;42.520;27.448;2023-11-22T09:59:10;24.47;;;10.37;;
8574;SDS011;4325;42.520;27.448;2023-11-22T10:01:40;21.03;;;9.80;;
8574;SDS011;4325;42.520;27.448;2023-11-22T10:04:07;18.83;;;8.70;;
8574;SDS011;4325;42.520;27.448;2023-11-22T10:06:34;39.30;;;10.23;;
8574;SDS011;4325;42.520;27.448;2023-11-22T10:09:04;14.47;;;9.07;;
8574;SDS011;4325;42.520;27.448;2023-11-22T10:11:33;17.17;;;10.30;;
8574;SDS011;4325;42.520;27.448;2023-11-22T10:14:02;17.63;;;9.20;;
8574;SDS011;4325;42.520;27.448;2023-11-22T10:16:30;17.40;;;11.33;;
8574;SDS011;4325;42.520;27.448;2023-11-22T10:18:56;18.70;;;9.60;;
8574;SDS011;4325;42.520;27.448;2023-11-22T10:21:24;13.23;;;9.57;;
8574;SDS011;4325;42.520;27.448;2023-11-22T10:23:54;18.83;;;10.03;;
8574;SDS011;4325;42.520;27.448;2023-11-22T10:26:23;13.83;;;9.90;;
8574;SDS011;4325;42.520;27.448;2023-11-22T10:28:50;19.60;;;11.00;;
8574;SDS011;4325;42.520;27.448;2023-11-22T10:31:18;15.33;;;10.77;;
8574;SDS011;4325;42.520;27.448;2023-11-22T10:33:47;22.43;;;11.83;;
8574;SDS011;4325;42.520;27.448;2023-11-22T10:36:14;30.47;;;11.67;;
8574;SDS011;4325;42.520;27.448;2023-11-22T10:38:41;20.23;;;12.50;;
8574;SDS011;4325;42.520;27.448;2023-11-22T10:41:12;17.33;;;11.17;;
8574;SDS011;4325;42.520;27.448;2023-11-22T10:43:41;22.50;;;11.80;;
8574;SDS011;4325;42.520;27.448;2023-11-22T10:46:09;20.67;;;11.87;;
8574;SDS011;4325;42.520;27.448;2023-11-22T10:48:39;16.23;;;10.90;;
8574;SDS011;4325;42.520;27.448;2023-11-22T10:51:06;18.03;;;11.57;;
8574;SDS011;4325;42.520;27.448;2023-11-22T10:53:42;14.43;;;10.37;;
8574;SDS011;4325;42.520;27.448;2023-11-22T10:56:15;20.50;;;10.50;;
8574;SDS011;4325;42.520;27.448;2023-11-22T10:58:48;18.23;;;11.33;;
8574;SDS011;4325;42.520;27.448;2023-11-22T11:01:17;15.70;;;9.53;;
8574;SDS011;4325;42.520;27.448;2023-11-22T11:03:49;20.17;;;10.37;;
8574;SDS011;4325;42.520;27.448;2023-11-22T11:06:24;16.27;;;12.10;;
8574;SDS011;4325;42.520;27.448;2023-11-22T11:08:59;13.50;;;9.73;;
8574;SDS011;4325;42.520;27.448;2023-11-22T11:11:32;14.37;;;9.70;;
8574;SDS011;4325;42.520;27.448;2023-11-22T11:14:01;15.17;;;9.70;;
8574;SDS011;4325;42.520;27.448;2023-11-22T11:16:30;15.50;;;9.57;;
8574;SDS011;4325;42.520;27.448;2023-11-22T11:18:59;21.33;;;9.60;;
8574;SDS011;4325;42.520;27.448;2023-11-22T11:21:28;14.90;;;8.90;;
8574;SDS011;4325;42.520;27.448;2023-11-22T11:23:55;18.20;;;10.77;;
8574;SDS011;4325;42.520;27.448;2023-11-22T11:26:27;18.90;;;9.77;;
8574;SDS011;4325;42.520;27.448;2023-11-22T11:28:55;12.07;;;8.83;;
8574;SDS011;4325;42.520;27.448;2023-11-22T11:31:23;14.47;;;8.90;;
8574;SDS011;4325;42.520;27.448;2023-11-22T11:33:54;12.10;;;9.03;;
8574;SDS011;4325;42.520;27.448;2023-11-22T11:36:23;14.77;;;9.17;;
8574;SDS011;4325;42.520;27.448;2023-11-22T11:38:51;14.90;;;9.03;;
8574;SDS011;4325;42.520;27.448;2023-11-22T11:41:22;14.03;;;9.60;;
8574;SDS011;4325;42.520;27.448;2023-11-22T11:43:52;17.40;;;10.73;;
8574;SDS011;4325;42.520;27.448;2023-11-22T11:46:18;13.50;;;9.40;;
8574;SDS011;4325;42.520;27.448;2023-11-22T11:48:49;15.80;;;9.57;;
8574;SDS011;4325;42.520;27.448;2023-11-22T11:51:19;13.07;;;9.27;;
8574;SDS011;4325;42.520;27.448;2023-11-22T11:53:47;16.23;;;9.00;;
8574;SDS011;4325;42.520;27.448;2023-11-22T11:56:15;11.43;;;8.80;;
8574;SDS011;4325;42.520;27.448;2023-11-22T11:58:43;15.27;;;8.80;;
8574;SDS011;4325;42.520;27.448;2023-11-22T12:01:12;14.27;;;8.93;;
8574;SDS011;4325;42.520;27.448;2023-11-22T12:03:41;16.60;;;8.70;;
8574;SDS011;4325;42.520;27.448;2023-11-22T12:06:10;16.33;;;9.20;;
8574;SDS011;4325;42.520;27.448;2023-11-22T12:08:37;17.63;;;8.70;;
8574;SDS011;4325;42.520;27.448;2023-11-22T12:11:04;11.70;;;7.97;;
8574;SDS011;4325;42.520;27.448;2023-11-22T12:13:33;13.13;;;8.73;;
8574;SDS011;4325;42.520;27.448;2023-11-22T12:16:03;13.50;;;7.60;;
8574;SDS011;4325;42.520;27.448;2023-11-22T12:18:39;9.87;;;7.23;;
8574;SDS011;4325;42.520;27.448;2023-11-22T12:21:09;12.53;;;8.57;;
8574;SDS011;4325;42.520;27.448;2023-11-22T12:23:38;18.50;;;10.53;;
8574;SDS011;4325;42.520;27.448;2023-11-22T12:26:09;13.63;;;7.87;;
8574;SDS011;4325;42.520;27.448;2023-11-22T12:28:38;9.80;;;7.13;;
8574;SDS011;4325;42.520;27.448;2023-11-22T12:31:06;11.63;;;7.70;;
8574;SDS011;4325;42.520;27.448;2023-11-22T12:33:35;12.03;;;8.10;;
8574;SDS011;4325;42.520;27.448;2023-11-22T12:36:02;12.73;;;8.23;;
8574;SDS011;4325;42.520;27.448;2023-11-22T12:38:31;12.53;;;8.13;;
8574;SDS011;4325;42.520;27.448;2023-11-22T12:40:58;11.13;;;7.37;;
8574;SDS011;4325;42.520;27.448;2023-11-22T12:43:28;10.07;;;7.33;;
8574;SDS011;4325;42.520;27.448;2023-11-22T12:45:58;11.30;;;6.83;;
8574;SDS011;4325;42.520;27.448;2023-11-22T12:48:26;11.13;;;7.10;;
8574;SDS011;4325;42.520;27.448;2023-11-22T12:50:55;9.60;;;6.13;;
8574;SDS011;4325;42.520;27.448;2023-11-22T12:53:22;21.17;;;6.83;;
8574;SDS011;4325;42.520;27.448;2023-11-22T12:55:52;17.70;;;6.83;;
8574;SDS011;4325;42.520;27.448;2023-11-22T12:58:21;9.07;;;5.20;;
8574;SDS011;4325;42.520;27.448;2023-11-22T13:00:49;8.23;;;5.30;;
8574;SDS011;4325;42.520;27.448;2023-11-22T13:03:23;7.10;;;5.13;;
8574;SDS011;4325;42.520;27.448;2023-11-22T13:05:50;10.10;;;5.40;;
8574;SDS011;4325;42.520;27.448;2023-11-22T13:08:18;7.93;;;5.67;;
8574;SDS011;4325;42.520;27.448;2023-11-22T13:10:47;10.63;;;6.60;;
8574;SDS011;4325;42.520;27.448;2023-11-22T13:13:20;9.77;;;6.67;;
8574;SDS011;4325;42.520;27.448;2023-11-22T13:15:47;12.23;;;7.30;;
8574;SDS011;4325;42.520;27.448;2023-11-22T13:18:14;13.33;;;8.00;;
8574;SDS011;4325;42.520;27.448;2023-11-22T13:20:41;13.90;;;7.37;;
8574;SDS011;4325;42.520;27.448;2023-11-22T13:23:09;12.00;;;7.17;;
8574;SDS011;4325;42.520;27.448;2023-11-22T13:25:37;11.10;;;7.20;;
8574;SDS011;4325;42.520;27.448;2023-11-22T13:28:04;13.87;;;7.53;;
8574;SDS011;4325;42.520;27.448;2023-11-22T13:30:32;16.93;;;8.07;;
8574;SDS011;4325;42.520;27.448;2023-11-22T13:32:59;12.77;;;8.27;;
8574;SDS011;4325;42.520;27.448;2023-11-22T13:38:13;12.83;;;9.93;;
8574;SDS011;4325;42.520;27.448;2023-11-22T13:40:41;14.10;;;9.47;;
8574;SDS011;4325;42.520;27.448;2023-11-22T13:43:11;13.53;;;7.90;;
8574;SDS011;4325;42.520;27.448;2023-11-22T13:45:40;14.97;;;9.03;;
8574;SDS011;4325;42.520;27.448;2023-11-22T13:48:07;13.47;;;8.43;;
8574;SDS011;4325;42.520;27.448;2023-11-22T13:50:35;19.80;;;8.60;;
8574;SDS011;4325;42.520;27.448;2023-11-22T13:53:02;20.70;;;12.43;;
8574;SDS011;4325;42.520;27.448;2023-11-22T13:55:30;13.67;;;8.60;;
8574;SDS011;4325;42.520;27.448;2023-11-22T13:57:57;11.23;;;6.87;;
8574;SDS011;4325;42.520;27.448;2023-11-22T14:00:26;11.90;;;7.57;;
8574;SDS011;4325;42.520;27.448;2023-11-22T14:03:00;15.83;;;8.27;;
8574;SDS011;4325;42.520;27.448;2023-11-22T14:05:31;11.90;;;7.87;;
8574;SDS011;4325;42.520;27.448;2023-11-22T14:07:59;17.30;;;8.13;;
8574;SDS011;4325;42.520;27.448;2023-11-22T14:10:26;12.40;;;8.53;;
8574;SDS011;4325;42.520;27.448;2023-11-22T14:12:53;11.87;;;8.93;;
8574;SDS011;4325;42.520;27.448;2023-11-22T14:15:25;17.63;;;8.83;;
8574;SDS011;4325;42.520;27.448;2023-11-22T14:17:53;14.60;;;9.20;;
8574;SDS011;4325;42.520;27.448;2023-11-22T14:20:21;13.90;;;8.43;;
8574;SDS011;4325;42.520;27.448;2023-11-22T14:22:49;12.33;;;8.60;;
8574;SDS011;4325;42.520;27.448;2023-11-22T14:25:16;14.37;;;8.67;;
8574;SDS011;4325;42.520;27.448;2023-11-22T14:27:44;10.97;;;8.30;;
8574;SDS011;4325;42.520;27.448;2023-11-22T14:30:12;11.30;;;8.10;;
8574;SDS011;4325;42.520;27.448;2023-11-22T14:32:42;18.17;;;8.80;;
8574;SDS011;4325;42.520;27.448;2023-11-22T14:35:09;13.17;;;7.23;;
8574;SDS011;4325;42.520;27.448;2023-11-22T14:37:39;10.00;;;5.53;;
8574;SDS011;4325;42.520;27.448;2023-11-22T14:40:07;8.13;;;5.43;;
8574;SDS011;4325;42.520;27.448;2023-11-22T14:42:38;7.00;;;4.90;;
8574;SDS011;4325;42.520;27.448;2023-11-22T14:45:07;6.63;;;3.80;;
8574;SDS011;4325;42.520;27.448;2023-11-22T14:47:34;3.60;;;2.97;;
8574;SDS011;4325;42.520;27.448;2023-11-22T14:50:02;6.80;;;3.40;;
8574;SDS011;4325;42.520;27.448;2023-11-22T14:52:30;5.97;;;3.57;;
8574;SDS011;4325;42.520;27.448;2023-11-22T14:54:59;4.40;;;3.07;;